RJDB(METAR)
04/26 16:00
RJDB 260700Z 27007KT 9999 FEW025 SCT030 BKNXXX 15/09 Q1009 RMK
A2982=
戻る
トップページへ戻る
IMOC Co,.Ltd.